This is the latest recevied weather packets stored in our database for station/object N2ZVN. If no packets are shown the sender has not sent any weather packets the latest 10 day(s).
| Time | Temp. | Humidity | Pressure | Rain* | Wind** | Luminosity | Snow |
|---|---|---|---|---|---|---|---|
| 1777842769 | 12.78° C | 46% | 1009.4 hPa | 0 mm | - | 41 W/m² | - |
| 1777842464 | 12.78° C | 45% | 1009.6 hPa | 0 mm | - | 52 W/m² | - |
| 1777842162 | 12.78° C | 44% | 1009.5 hPa | 0 mm | - | 39 W/m² | - |
| 1777841862 | 12.78° C | 44% | 1009.4 hPa | 0 mm | - | 36 W/m² | - |
| 1777841559 | 12.78° C | 45% | 1009.5 hPa | 0 mm | - | 36 W/m² | - |
| 1777841255 | 12.78° C | 43% | 1009.6 hPa | 0 mm | - | 40 W/m² | - |
| 1777840953 | 12.78° C | 42% | 1009.5 hPa | 0 mm | - | 55 W/m² | - |
| 1777840651 | 13.33° C | 41% | 1009.4 hPa | 0 mm | - | 93 W/m² | - |
| 1777840348 | 13.33° C | 42% | 1010 hPa | 0 mm | - | 126 W/m² | - |
| 1777840045 | 13.33° C | 41% | 1009.6 hPa | 0 mm | - | 125 W/m² | - |
| 1777839743 | 13.89° C | 39% | 1009.8 hPa | 0 mm | - | 143 W/m² | - |
| 1777839440 | 13.89° C | 41% | 1009.8 hPa | 0 mm | - | 149 W/m² | - |
| 1777839138 | 13.89° C | 41% | 1009.9 hPa | 0 mm | - | 180 W/m² | - |
| 1777838834 | 13.89° C | 39% | 1009.9 hPa | 0 mm | - | 179 W/m² | - |
| 1777838531 | 13.89° C | 39% | 1010 hPa | 0 mm | - | 216 W/m² | - |
| 1777838227 | 13.89° C | 38% | 1010.2 hPa | 0 mm | - | 226 W/m² | - |
| 1777837924 | 13.89° C | 39% | 1010.4 hPa | 0 mm | - | 210 W/m² | - |
| 1777837621 | 13.89° C | 37% | 1010.1 hPa | 0 mm | - | 240 W/m² | - |
| 1777837316 | 13.89° C | 34% | 1010.4 hPa | 0 mm | - | 199 W/m² | - |
| 1777837014 | 14.44° C | 35% | 1010.5 hPa | 0 mm | - | 384 W/m² | - |
| 1777836709 | 15° C | 35% | 1010.5 hPa | 0 mm | - | 509 W/m² | - |
| 1777836405 | 14.44° C | 36% | 1010.6 hPa | 0 mm | - | 499 W/m² | - |
| 1777836101 | 13.89° C | 37% | 1010.7 hPa | 0 mm | - | 302 W/m² | - |
| 1777835798 | 13.89° C | 35% | 1010.9 hPa | 0 mm | - | 396 W/m² | - |
| 1777835495 | 13.89° C | 37% | 1011 hPa | 0 mm | - | 406 W/m² | - |
* Rain latest hour (hover to see other rain measurements)
** Current wind speed in m/s (hover to see current wind gust speed)